sensor_id;sensor_type;location;lat;lon;timestamp;P1;durP1;ratioP1;P2;durP2;ratioP2
4569;SDS011;2297;51.442;6.996;2023-07-29T00:00:38;3.25;;;1.92;;
4569;SDS011;2297;51.442;6.996;2023-07-29T00:03:05;3.15;;;2.10;;
4569;SDS011;2297;51.442;6.996;2023-07-29T00:05:32;3.60;;;2.40;;
4569;SDS011;2297;51.442;6.996;2023-07-29T00:07:58;2.75;;;2.03;;
4569;SDS011;2297;51.442;6.996;2023-07-29T00:10:25;2.92;;;2.60;;
4569;SDS011;2297;51.442;6.996;2023-07-29T00:12:52;3.78;;;2.97;;
4569;SDS011;2297;51.442;6.996;2023-07-29T00:15:20;4.18;;;2.55;;
4569;SDS011;2297;51.442;6.996;2023-07-29T00:17:46;3.35;;;2.50;;
4569;SDS011;2297;51.442;6.996;2023-07-29T00:20:13;4.18;;;2.72;;
4569;SDS011;2297;51.442;6.996;2023-07-29T00:22:40;3.60;;;2.40;;
4569;SDS011;2297;51.442;6.996;2023-07-29T00:25:07;4.00;;;2.40;;
4569;SDS011;2297;51.442;6.996;2023-07-29T00:27:34;3.55;;;2.50;;
4569;SDS011;2297;51.442;6.996;2023-07-29T00:30:03;6.53;;;2.35;;
4569;SDS011;2297;51.442;6.996;2023-07-29T00:32:32;3.28;;;2.60;;
4569;SDS011;2297;51.442;6.996;2023-07-29T00:34:58;3.45;;;2.70;;
4569;SDS011;2297;51.442;6.996;2023-07-29T00:37:26;4.55;;;2.85;;
4569;SDS011;2297;51.442;6.996;2023-07-29T00:39:52;2.50;;;2.30;;
4569;SDS011;2297;51.442;6.996;2023-07-29T00:42:19;3.10;;;2.30;;
4569;SDS011;2297;51.442;6.996;2023-07-29T00:44:46;5.60;;;2.63;;
4569;SDS011;2297;51.442;6.996;2023-07-29T00:47:12;3.78;;;2.20;;
4569;SDS011;2297;51.442;6.996;2023-07-29T00:49:43;3.55;;;2.60;;
4569;SDS011;2297;51.442;6.996;2023-07-29T00:52:10;4.70;;;2.42;;
4569;SDS011;2297;51.442;6.996;2023-07-29T00:54:38;2.65;;;2.30;;
4569;SDS011;2297;51.442;6.996;2023-07-29T00:57:05;5.68;;;2.40;;
4569;SDS011;2297;51.442;6.996;2023-07-29T00:59:34;4.85;;;2.80;;
4569;SDS011;2297;51.442;6.996;2023-07-29T01:05:25;4.43;;;2.70;;
4569;SDS011;2297;51.442;6.996;2023-07-29T01:07:59;6.35;;;2.45;;
4569;SDS011;2297;51.442;6.996;2023-07-29T01:10:34;3.85;;;2.50;;
4569;SDS011;2297;51.442;6.996;2023-07-29T01:13:06;3.28;;;2.72;;
4569;SDS011;2297;51.442;6.996;2023-07-29T01:15:40;3.67;;;2.60;;
4569;SDS011;2297;51.442;6.996;2023-07-29T01:20:43;5.05;;;2.70;;
4569;SDS011;2297;51.442;6.996;2023-07-29T01:23:10;3.08;;;2.70;;
4569;SDS011;2297;51.442;6.996;2023-07-29T01:25:38;3.35;;;2.78;;
4569;SDS011;2297;51.442;6.996;2023-07-29T01:28:05;2.88;;;2.60;;
4569;SDS011;2297;51.442;6.996;2023-07-29T01:30:37;4.93;;;2.50;;
4569;SDS011;2297;51.442;6.996;2023-07-29T01:33:07;3.55;;;2.80;;
4569;SDS011;2297;51.442;6.996;2023-07-29T01:38:40;4.72;;;2.45;;
4569;SDS011;2297;51.442;6.996;2023-07-29T01:41:09;6.50;;;2.42;;
4569;SDS011;2297;51.442;6.996;2023-07-29T01:43:37;4.00;;;2.28;;
4569;SDS011;2297;51.442;6.996;2023-07-29T01:46:09;2.90;;;2.28;;
4569;SDS011;2297;51.442;6.996;2023-07-29T01:48:36;3.97;;;2.40;;
4569;SDS011;2297;51.442;6.996;2023-07-29T01:51:03;2.60;;;2.20;;
4569;SDS011;2297;51.442;6.996;2023-07-29T01:53:30;9.15;;;2.42;;
4569;SDS011;2297;51.442;6.996;2023-07-29T01:55:56;4.50;;;2.28;;
4569;SDS011;2297;51.442;6.996;2023-07-29T01:58:24;5.82;;;2.30;;
4569;SDS011;2297;51.442;6.996;2023-07-29T02:00:51;5.40;;;2.95;;
4569;SDS011;2297;51.442;6.996;2023-07-29T02:03:18;3.95;;;2.22;;
4569;SDS011;2297;51.442;6.996;2023-07-29T02:05:44;3.80;;;2.10;;
4569;SDS011;2297;51.442;6.996;2023-07-29T02:08:11;7.43;;;2.25;;
4569;SDS011;2297;51.442;6.996;2023-07-29T02:10:39;6.15;;;2.30;;
4569;SDS011;2297;51.442;6.996;2023-07-29T02:13:06;4.38;;;2.50;;
4569;SDS011;2297;51.442;6.996;2023-07-29T02:15:34;5.15;;;2.53;;
4569;SDS011;2297;51.442;6.996;2023-07-29T02:18:00;4.63;;;2.47;;
4569;SDS011;2297;51.442;6.996;2023-07-29T02:20:28;3.28;;;2.60;;
4569;SDS011;2297;51.442;6.996;2023-07-29T02:22:55;2.33;;;2.10;;
4569;SDS011;2297;51.442;6.996;2023-07-29T02:25:21;3.50;;;2.30;;
4569;SDS011;2297;51.442;6.996;2023-07-29T02:27:48;4.22;;;2.55;;
4569;SDS011;2297;51.442;6.996;2023-07-29T02:30:15;8.02;;;3.00;;
4569;SDS011;2297;51.442;6.996;2023-07-29T02:32:43;2.90;;;2.20;;
4569;SDS011;2297;51.442;6.996;2023-07-29T02:35:09;3.00;;;2.67;;
4569;SDS011;2297;51.442;6.996;2023-07-29T02:37:36;3.97;;;2.50;;
4569;SDS011;2297;51.442;6.996;2023-07-29T02:40:03;3.05;;;2.75;;
4569;SDS011;2297;51.442;6.996;2023-07-29T02:42:31;6.07;;;2.38;;
4569;SDS011;2297;51.442;6.996;2023-07-29T02:44:57;2.50;;;2.30;;
4569;SDS011;2297;51.442;6.996;2023-07-29T02:47:24;5.20;;;2.58;;
4569;SDS011;2297;51.442;6.996;2023-07-29T02:49:52;2.70;;;2.45;;
4569;SDS011;2297;51.442;6.996;2023-07-29T02:52:18;3.33;;;2.65;;
4569;SDS011;2297;51.442;6.996;2023-07-29T02:54:45;7.05;;;3.30;;
4569;SDS011;2297;51.442;6.996;2023-07-29T02:57:12;3.63;;;2.70;;
4569;SDS011;2297;51.442;6.996;2023-07-29T02:59:39;4.75;;;2.60;;
4569;SDS011;2297;51.442;6.996;2023-07-29T03:02:06;6.70;;;2.75;;
4569;SDS011;2297;51.442;6.996;2023-07-29T03:04:32;3.58;;;2.75;;
4569;SDS011;2297;51.442;6.996;2023-07-29T03:07:00;2.80;;;2.58;;
4569;SDS011;2297;51.442;6.996;2023-07-29T03:09:27;3.47;;;2.60;;
4569;SDS011;2297;51.442;6.996;2023-07-29T03:11:54;5.13;;;2.60;;
4569;SDS011;2297;51.442;6.996;2023-07-29T03:14:22;2.83;;;2.60;;
4569;SDS011;2297;51.442;6.996;2023-07-29T03:16:48;3.97;;;2.90;;
4569;SDS011;2297;51.442;6.996;2023-07-29T03:19:15;2.85;;;2.50;;
4569;SDS011;2297;51.442;6.996;2023-07-29T03:21:41;5.60;;;3.30;;
4569;SDS011;2297;51.442;6.996;2023-07-29T03:24:09;3.63;;;3.28;;
4569;SDS011;2297;51.442;6.996;2023-07-29T03:26:36;4.00;;;3.20;;
4569;SDS011;2297;51.442;6.996;2023-07-29T03:29:03;3.08;;;2.70;;
4569;SDS011;2297;51.442;6.996;2023-07-29T03:31:29;3.85;;;3.03;;
4569;SDS011;2297;51.442;6.996;2023-07-29T03:33:56;5.72;;;2.97;;
4569;SDS011;2297;51.442;6.996;2023-07-29T03:36:24;5.32;;;3.15;;
4569;SDS011;2297;51.442;6.996;2023-07-29T03:38:50;6.28;;;3.28;;
4569;SDS011;2297;51.442;6.996;2023-07-29T03:41:19;4.18;;;3.50;;
4569;SDS011;2297;51.442;6.996;2023-07-29T03:43:45;3.75;;;3.08;;
4569;SDS011;2297;51.442;6.996;2023-07-29T03:46:12;4.90;;;3.00;;
4569;SDS011;2297;51.442;6.996;2023-07-29T03:48:42;4.47;;;3.15;;
4569;SDS011;2297;51.442;6.996;2023-07-29T03:51:09;3.88;;;3.30;;
4569;SDS011;2297;51.442;6.996;2023-07-29T03:53:36;4.40;;;3.22;;
4569;SDS011;2297;51.442;6.996;2023-07-29T03:56:02;4.15;;;3.50;;
4569;SDS011;2297;51.442;6.996;2023-07-29T03:58:31;7.25;;;3.78;;
4569;SDS011;2297;51.442;6.996;2023-07-29T04:00:57;4.93;;;3.72;;
4569;SDS011;2297;51.442;6.996;2023-07-29T04:03:24;5.55;;;3.80;;
4569;SDS011;2297;51.442;6.996;2023-07-29T04:05:51;6.75;;;4.13;;
4569;SDS011;2297;51.442;6.996;2023-07-29T04:08:18;6.10;;;4.20;;
4569;SDS011;2297;51.442;6.996;2023-07-29T04:10:45;6.15;;;4.45;;
4569;SDS011;2297;51.442;6.996;2023-07-29T04:13:12;5.40;;;3.88;;
4569;SDS011;2297;51.442;6.996;2023-07-29T04:15:40;4.90;;;3.40;;
4569;SDS011;2297;51.442;6.996;2023-07-29T04:18:07;6.78;;;4.10;;
4569;SDS011;2297;51.442;6.996;2023-07-29T04:20:33;5.38;;;4.28;;
4569;SDS011;2297;51.442;6.996;2023-07-29T04:23:01;6.90;;;4.32;;
4569;SDS011;2297;51.442;6.996;2023-07-29T04:25:28;5.53;;;3.60;;
4569;SDS011;2297;51.442;6.996;2023-07-29T04:27:55;7.50;;;4.22;;
4569;SDS011;2297;51.442;6.996;2023-07-29T04:30:22;6.38;;;3.70;;
4569;SDS011;2297;51.442;6.996;2023-07-29T04:32:50;4.30;;;3.70;;
4569;SDS011;2297;51.442;6.996;2023-07-29T04:35:17;7.53;;;4.47;;
4569;SDS011;2297;51.442;6.996;2023-07-29T04:37:43;6.07;;;4.13;;
4569;SDS011;2297;51.442;6.996;2023-07-29T04:40:13;5.20;;;4.28;;
4569;SDS011;2297;51.442;6.996;2023-07-29T04:42:39;5.50;;;3.90;;
4569;SDS011;2297;51.442;6.996;2023-07-29T04:45:06;5.78;;;4.20;;
4569;SDS011;2297;51.442;6.996;2023-07-29T04:47:33;4.55;;;3.78;;
4569;SDS011;2297;51.442;6.996;2023-07-29T04:50:03;6.50;;;4.55;;
4569;SDS011;2297;51.442;6.996;2023-07-29T04:52:31;5.95;;;4.78;;
4569;SDS011;2297;51.442;6.996;2023-07-29T04:54:58;8.68;;;5.15;;
4569;SDS011;2297;51.442;6.996;2023-07-29T04:57:24;7.72;;;4.88;;
4569;SDS011;2297;51.442;6.996;2023-07-29T04:59:51;9.60;;;5.45;;
4569;SDS011;2297;51.442;6.996;2023-07-29T05:02:17;8.57;;;5.40;;
4569;SDS011;2297;51.442;6.996;2023-07-29T05:04:44;7.47;;;5.88;;
4569;SDS011;2297;51.442;6.996;2023-07-29T05:07:12;9.50;;;6.53;;
4569;SDS011;2297;51.442;6.996;2023-07-29T05:09:39;8.18;;;6.75;;
4569;SDS011;2297;51.442;6.996;2023-07-29T05:12:06;24.27;;;14.13;;
4569;SDS011;2297;51.442;6.996;2023-07-29T05:14:33;11.32;;;6.80;;
4569;SDS011;2297;51.442;6.996;2023-07-29T05:17:00;12.10;;;7.55;;
4569;SDS011;2297;51.442;6.996;2023-07-29T05:19:26;9.27;;;6.80;;
4569;SDS011;2297;51.442;6.996;2023-07-29T05:21:53;11.18;;;7.47;;
4569;SDS011;2297;51.442;6.996;2023-07-29T05:24:21;9.45;;;7.20;;
4569;SDS011;2297;51.442;6.996;2023-07-29T05:26:48;9.82;;;8.48;;
4569;SDS011;2297;51.442;6.996;2023-07-29T05:29:15;10.38;;;8.35;;
4569;SDS011;2297;51.442;6.996;2023-07-29T05:31:41;15.25;;;8.32;;
4569;SDS011;2297;51.442;6.996;2023-07-29T05:34:08;11.75;;;8.10;;
4569;SDS011;2297;51.442;6.996;2023-07-29T05:36:35;10.48;;;8.05;;
4569;SDS011;2297;51.442;6.996;2023-07-29T05:39:01;8.50;;;7.53;;
4569;SDS011;2297;51.442;6.996;2023-07-29T05:41:30;10.77;;;8.07;;
4569;SDS011;2297;51.442;6.996;2023-07-29T05:43:56;9.98;;;7.70;;
4569;SDS011;2297;51.442;6.996;2023-07-29T05:46:23;12.27;;;6.90;;
4569;SDS011;2297;51.442;6.996;2023-07-29T05:48:50;7.30;;;6.28;;
4569;SDS011;2297;51.442;6.996;2023-07-29T05:51:17;11.65;;;6.97;;
4569;SDS011;2297;51.442;6.996;2023-07-29T05:53:44;7.50;;;5.72;;
4569;SDS011;2297;51.442;6.996;2023-07-29T05:56:10;8.00;;;5.68;;
4569;SDS011;2297;51.442;6.996;2023-07-29T05:58:39;5.88;;;4.85;;
4569;SDS011;2297;51.442;6.996;2023-07-29T06:01:05;6.85;;;4.82;;
4569;SDS011;2297;51.442;6.996;2023-07-29T06:03:32;8.43;;;4.93;;
4569;SDS011;2297;51.442;6.996;2023-07-29T06:09:02;4.85;;;3.53;;
4569;SDS011;2297;51.442;6.996;2023-07-29T06:11:29;6.57;;;3.63;;
4569;SDS011;2297;51.442;6.996;2023-07-29T06:13:57;5.53;;;3.25;;
4569;SDS011;2297;51.442;6.996;2023-07-29T06:16:24;4.45;;;2.70;;
4569;SDS011;2297;51.442;6.996;2023-07-29T06:18:50;3.78;;;2.72;;
4569;SDS011;2297;51.442;6.996;2023-07-29T06:24:39;4.05;;;2.78;;
4569;SDS011;2297;51.442;6.996;2023-07-29T06:27:06;3.10;;;2.25;;
4569;SDS011;2297;51.442;6.996;2023-07-29T06:29:34;5.13;;;2.60;;
4569;SDS011;2297;51.442;6.996;2023-07-29T06:32:00;4.82;;;2.30;;
4569;SDS011;2297;51.442;6.996;2023-07-29T06:34:27;5.60;;;2.90;;
4569;SDS011;2297;51.442;6.996;2023-07-29T06:36:54;3.15;;;2.30;;
4569;SDS011;2297;51.442;6.996;2023-07-29T06:39:20;4.53;;;2.63;;
4569;SDS011;2297;51.442;6.996;2023-07-29T06:41:47;3.05;;;2.17;;
4569;SDS011;2297;51.442;6.996;2023-07-29T06:44:14;3.95;;;2.28;;
4569;SDS011;2297;51.442;6.996;2023-07-29T06:46:42;5.47;;;2.42;;
4569;SDS011;2297;51.442;6.996;2023-07-29T06:49:08;3.50;;;2.30;;
4569;SDS011;2297;51.442;6.996;2023-07-29T06:51:35;4.20;;;2.10;;
4569;SDS011;2297;51.442;6.996;2023-07-29T06:54:02;4.75;;;2.28;;
4569;SDS011;2297;51.442;6.996;2023-07-29T06:56:28;3.13;;;2.03;;
4569;SDS011;2297;51.442;6.996;2023-07-29T06:58:55;3.80;;;2.00;;
4569;SDS011;2297;51.442;6.996;2023-07-29T07:01:22;2.92;;;2.03;;
4569;SDS011;2297;51.442;6.996;2023-07-29T07:03:50;3.58;;;1.90;;
4569;SDS011;2297;51.442;6.996;2023-07-29T07:06:19;4.72;;;2.70;;
4569;SDS011;2297;51.442;6.996;2023-07-29T07:12:08;6.97;;;2.50;;
4569;SDS011;2297;51.442;6.996;2023-07-29T07:14:34;6.78;;;2.40;;
4569;SDS011;2297;51.442;6.996;2023-07-29T07:17:01;3.95;;;2.58;;
4569;SDS011;2297;51.442;6.996;2023-07-29T07:19:29;7.05;;;2.53;;
4569;SDS011;2297;51.442;6.996;2023-07-29T07:21:56;3.60;;;2.50;;
4569;SDS011;2297;51.442;6.996;2023-07-29T07:24:22;4.97;;;2.50;;
4569;SDS011;2297;51.442;6.996;2023-07-29T07:26:49;5.25;;;2.72;;
4569;SDS011;2297;51.442;6.996;2023-07-29T07:29:15;3.35;;;2.65;;
4569;SDS011;2297;51.442;6.996;2023-07-29T07:31:47;4.65;;;2.30;;
4569;SDS011;2297;51.442;6.996;2023-07-29T07:34:16;5.28;;;2.40;;
4569;SDS011;2297;51.442;6.996;2023-07-29T07:36:44;5.60;;;2.67;;
4569;SDS011;2297;51.442;6.996;2023-07-29T07:39:11;4.38;;;2.63;;
4569;SDS011;2297;51.442;6.996;2023-07-29T07:41:37;4.28;;;2.58;;
4569;SDS011;2297;51.442;6.996;2023-07-29T07:44:09;3.63;;;2.63;;
4569;SDS011;2297;51.442;6.996;2023-07-29T07:46:40;6.88;;;2.80;;
4569;SDS011;2297;51.442;6.996;2023-07-29T07:49:07;5.78;;;2.50;;
4569;SDS011;2297;51.442;6.996;2023-07-29T07:51:33;7.35;;;2.70;;
4569;SDS011;2297;51.442;6.996;2023-07-29T07:54:01;5.43;;;2.10;;
4569;SDS011;2297;51.442;6.996;2023-07-29T07:56:28;5.70;;;2.13;;
4569;SDS011;2297;51.442;6.996;2023-07-29T07:58:54;7.88;;;2.15;;
4569;SDS011;2297;51.442;6.996;2023-07-29T08:01:21;3.10;;;1.88;;
4569;SDS011;2297;51.442;6.996;2023-07-29T08:03:48;7.20;;;2.10;;
4569;SDS011;2297;51.442;6.996;2023-07-29T08:06:14;3.58;;;2.20;;
4569;SDS011;2297;51.442;6.996;2023-07-29T08:08:41;2.97;;;2.33;;
4569;SDS011;2297;51.442;6.996;2023-07-29T08:11:09;5.65;;;2.80;;
4569;SDS011;2297;51.442;6.996;2023-07-29T08:13:35;3.13;;;2.20;;
4569;SDS011;2297;51.442;6.996;2023-07-29T08:16:02;4.43;;;2.60;;
4569;SDS011;2297;51.442;6.996;2023-07-29T08:18:29;3.60;;;2.30;;
4569;SDS011;2297;51.442;6.996;2023-07-29T08:20:56;4.10;;;1.90;;
4569;SDS011;2297;51.442;6.996;2023-07-29T08:23:28;3.17;;;2.00;;
4569;SDS011;2297;51.442;6.996;2023-07-29T08:25:56;2.90;;;2.05;;
4569;SDS011;2297;51.442;6.996;2023-07-29T08:28:27;4.50;;;1.85;;
4569;SDS011;2297;51.442;6.996;2023-07-29T08:30:55;2.88;;;1.92;;
4569;SDS011;2297;51.442;6.996;2023-07-29T08:33:21;3.15;;;2.08;;
4569;SDS011;2297;51.442;6.996;2023-07-29T08:35:48;2.60;;;1.92;;
4569;SDS011;2297;51.442;6.996;2023-07-29T08:38:15;3.00;;;2.22;;
4569;SDS011;2297;51.442;6.996;2023-07-29T08:40:42;2.47;;;2.20;;
4569;SDS011;2297;51.442;6.996;2023-07-29T08:43:11;3.58;;;2.63;;
4569;SDS011;2297;51.442;6.996;2023-07-29T08:45:41;4.28;;;2.80;;
4569;SDS011;2297;51.442;6.996;2023-07-29T08:48:10;2.72;;;2.00;;
4569;SDS011;2297;51.442;6.996;2023-07-29T08:50:38;3.42;;;2.30;;
4569;SDS011;2297;51.442;6.996;2023-07-29T08:53:06;2.72;;;2.15;;
4569;SDS011;2297;51.442;6.996;2023-07-29T08:55:34;2.80;;;1.92;;
4569;SDS011;2297;51.442;6.996;2023-07-29T08:58:00;3.00;;;2.08;;
4569;SDS011;2297;51.442;6.996;2023-07-29T09:00:29;2.75;;;2.25;;
4569;SDS011;2297;51.442;6.996;2023-07-29T09:02:57;3.85;;;1.85;;
4569;SDS011;2297;51.442;6.996;2023-07-29T09:05:29;4.28;;;2.33;;
4569;SDS011;2297;51.442;6.996;2023-07-29T09:07:56;2.85;;;2.20;;
4569;SDS011;2297;51.442;6.996;2023-07-29T09:10:23;2.83;;;2.08;;
4569;SDS011;2297;51.442;6.996;2023-07-29T09:12:52;2.60;;;1.83;;
4569;SDS011;2297;51.442;6.996;2023-07-29T09:15:28;2.88;;;1.98;;
4569;SDS011;2297;51.442;6.996;2023-07-29T09:17:57;3.92;;;1.90;;
4569;SDS011;2297;51.442;6.996;2023-07-29T09:20:24;2.30;;;1.40;;
4569;SDS011;2297;51.442;6.996;2023-07-29T09:22:53;2.58;;;1.30;;
4569;SDS011;2297;51.442;6.996;2023-07-29T09:25:23;1.83;;;1.40;;
4569;SDS011;2297;51.442;6.996;2023-07-29T09:27:52;1.52;;;1.40;;
4569;SDS011;2297;51.442;6.996;2023-07-29T09:30:19;3.85;;;1.70;;
4569;SDS011;2297;51.442;6.996;2023-07-29T09:32:45;2.15;;;1.50;;
4569;SDS011;2297;51.442;6.996;2023-07-29T09:35:13;5.00;;;1.85;;
4569;SDS011;2297;51.442;6.996;2023-07-29T09:37:40;3.88;;;1.65;;
4569;SDS011;2297;51.442;6.996;2023-07-29T09:40:07;2.65;;;2.00;;
4569;SDS011;2297;51.442;6.996;2023-07-29T09:42:40;3.40;;;1.90;;
4569;SDS011;2297;51.442;6.996;2023-07-29T09:45:14;2.42;;;1.98;;
4569;SDS011;2297;51.442;6.996;2023-07-29T09:47:46;2.10;;;1.90;;
4569;SDS011;2297;51.442;6.996;2023-07-29T09:50:14;2.22;;;1.58;;
4569;SDS011;2297;51.442;6.996;2023-07-29T09:52:41;1.73;;;1.40;;
4569;SDS011;2297;51.442;6.996;2023-07-29T09:55:09;2.60;;;1.67;;
4569;SDS011;2297;51.442;6.996;2023-07-29T09:57:36;1.33;;;1.20;;
4569;SDS011;2297;51.442;6.996;2023-07-29T10:00:04;1.40;;;1.30;;
4569;SDS011;2297;51.442;6.996;2023-07-29T10:02:36;1.88;;;1.48;;
4569;SDS011;2297;51.442;6.996;2023-07-29T10:05:03;2.47;;;1.40;;
4569;SDS011;2297;51.442;6.996;2023-07-29T10:07:33;1.85;;;1.30;;
4569;SDS011;2297;51.442;6.996;2023-07-29T10:10:01;2.42;;;1.20;;
4569;SDS011;2297;51.442;6.996;2023-07-29T10:12:29;1.67;;;1.40;;
4569;SDS011;2297;51.442;6.996;2023-07-29T10:14:57;1.70;;;1.50;;
4569;SDS011;2297;51.442;6.996;2023-07-29T10:17:25;1.40;;;1.30;;
4569;SDS011;2297;51.442;6.996;2023-07-29T10:19:53;1.60;;;1.40;;
4569;SDS011;2297;51.442;6.996;2023-07-29T10:22:22;1.88;;;1.42;;
4569;SDS011;2297;51.442;6.996;2023-07-29T10:24:56;2.15;;;1.75;;
4569;SDS011;2297;51.442;6.996;2023-07-29T10:27:29;3.90;;;2.20;;
4569;SDS011;2297;51.442;6.996;2023-07-29T10:29:59;3.30;;;2.15;;
4569;SDS011;2297;51.442;6.996;2023-07-29T10:32:26;3.55;;;1.90;;
4569;SDS011;2297;51.442;6.996;2023-07-29T10:34:53;2.58;;;1.90;;
4569;SDS011;2297;51.442;6.996;2023-07-29T10:37:20;3.88;;;2.25;;
4569;SDS011;2297;51.442;6.996;2023-07-29T10:39:52;2.80;;;2.10;;
4569;SDS011;2297;51.442;6.996;2023-07-29T10:42:21;4.25;;;1.80;;
4569;SDS011;2297;51.442;6.996;2023-07-29T10:44:49;1.98;;;1.58;;
4569;SDS011;2297;51.442;6.996;2023-07-29T10:47:17;2.17;;;1.65;;
4569;SDS011;2297;51.442;6.996;2023-07-29T10:49:46;1.98;;;1.70;;
4569;SDS011;2297;51.442;6.996;2023-07-29T10:52:14;3.38;;;1.90;;
4569;SDS011;2297;51.442;6.996;2023-07-29T10:54:42;4.03;;;1.80;;
4569;SDS011;2297;51.442;6.996;2023-07-29T10:57:12;2.67;;;1.90;;
4569;SDS011;2297;51.442;6.996;2023-07-29T10:59:43;2.20;;;1.42;;
4569;SDS011;2297;51.442;6.996;2023-07-29T11:02:20;1.48;;;1.35;;
4569;SDS011;2297;51.442;6.996;2023-07-29T11:04:47;1.45;;;1.30;;
4569;SDS011;2297;51.442;6.996;2023-07-29T11:07:22;2.00;;;1.80;;
4569;SDS011;2297;51.442;6.996;2023-07-29T11:09:51;2.13;;;1.30;;
4569;SDS011;2297;51.442;6.996;2023-07-29T11:12:42;1.60;;;1.30;;
4569;SDS011;2297;51.442;6.996;2023-07-29T11:15:21;2.05;;;1.40;;
4569;SDS011;2297;51.442;6.996;2023-07-29T11:17:49;1.65;;;1.50;;
4569;SDS011;2297;51.442;6.996;2023-07-29T11:20:21;4.32;;;1.67;;
4569;SDS011;2297;51.442;6.996;2023-07-29T11:22:48;1.55;;;1.40;;
4569;SDS011;2297;51.442;6.996;2023-07-29T11:25:16;1.73;;;1.42;;
4569;SDS011;2297;51.442;6.996;2023-07-29T11:27:44;1.75;;;1.60;;
4569;SDS011;2297;51.442;6.996;2023-07-29T11:30:11;2.10;;;1.40;;
4569;SDS011;2297;51.442;6.996;2023-07-29T11:32:41;2.03;;;1.50;;
4569;SDS011;2297;51.442;6.996;2023-07-29T11:35:09;2.45;;;1.50;;
4569;SDS011;2297;51.442;6.996;2023-07-29T11:37:38;4.88;;;1.55;;
4569;SDS011;2297;51.442;6.996;2023-07-29T11:40:05;2.78;;;1.40;;
4569;SDS011;2297;51.442;6.996;2023-07-29T11:42:34;2.33;;;1.60;;
4569;SDS011;2297;51.442;6.996;2023-07-29T11:45:01;3.45;;;1.60;;
4569;SDS011;2297;51.442;6.996;2023-07-29T11:47:31;3.28;;;1.45;;
4569;SDS011;2297;51.442;6.996;2023-07-29T11:50:02;2.75;;;1.60;;
4569;SDS011;2297;51.442;6.996;2023-07-29T11:52:29;2.65;;;1.70;;
4569;SDS011;2297;51.442;6.996;2023-07-29T11:54:58;1.35;;;1.25;;
4569;SDS011;2297;51.442;6.996;2023-07-29T11:57:26;2.33;;;1.40;;
4569;SDS011;2297;51.442;6.996;2023-07-29T11:59:53;1.58;;;1.48;;
4569;SDS011;2297;51.442;6.996;2023-07-29T12:02:20;2.13;;;1.35;;
4569;SDS011;2297;51.442;6.996;2023-07-29T12:04:48;1.58;;;1.27;;
4569;SDS011;2297;51.442;6.996;2023-07-29T12:07:17;4.63;;;1.58;;
4569;SDS011;2297;51.442;6.996;2023-07-29T12:09:45;1.85;;;1.63;;
4569;SDS011;2297;51.442;6.996;2023-07-29T12:12:12;2.03;;;1.60;;
4569;SDS011;2297;51.442;6.996;2023-07-29T12:14:42;5.25;;;1.63;;
4569;SDS011;2297;51.442;6.996;2023-07-29T12:17:10;1.90;;;1.40;;
4569;SDS011;2297;51.442;6.996;2023-07-29T12:19:37;2.25;;;1.60;;
4569;SDS011;2297;51.442;6.996;2023-07-29T12:22:07;1.77;;;1.42;;
4569;SDS011;2297;51.442;6.996;2023-07-29T12:24:36;4.13;;;1.48;;
4569;SDS011;2297;51.442;6.996;2023-07-29T12:27:04;3.10;;;1.50;;
4569;SDS011;2297;51.442;6.996;2023-07-29T12:29:31;1.95;;;1.65;;
4569;SDS011;2297;51.442;6.996;2023-07-29T12:31:59;3.08;;;1.85;;
4569;SDS011;2297;51.442;6.996;2023-07-29T12:34:27;1.52;;;1.38;;
4569;SDS011;2297;51.442;6.996;2023-07-29T12:36:55;2.28;;;1.60;;
4569;SDS011;2297;51.442;6.996;2023-07-29T12:39:23;1.45;;;1.35;;
4569;SDS011;2297;51.442;6.996;2023-07-29T12:41:52;4.15;;;1.70;;
4569;SDS011;2297;51.442;6.996;2023-07-29T12:44:22;4.60;;;1.50;;
4569;SDS011;2297;51.442;6.996;2023-07-29T12:46:49;3.13;;;1.58;;
4569;SDS011;2297;51.442;6.996;2023-07-29T12:49:16;1.58;;;1.48;;
4569;SDS011;2297;51.442;6.996;2023-07-29T12:51:43;5.53;;;1.92;;
4569;SDS011;2297;51.442;6.996;2023-07-29T12:54:09;3.30;;;1.60;;
4569;SDS011;2297;51.442;6.996;2023-07-29T12:56:36;3.30;;;1.60;;
4569;SDS011;2297;51.442;6.996;2023-07-29T12:59:04;2.13;;;1.45;;
4569;SDS011;2297;51.442;6.996;2023-07-29T13:01:31;2.08;;;1.70;;
4569;SDS011;2297;51.442;6.996;2023-07-29T13:03:58;3.35;;;1.85;;
4569;SDS011;2297;51.442;6.996;2023-07-29T13:06:25;3.17;;;1.50;;
4569;SDS011;2297;51.442;6.996;2023-07-29T13:08:52;4.03;;;1.80;;
4569;SDS011;2297;51.442;6.996;2023-07-29T13:11:18;3.60;;;1.83;;
4569;SDS011;2297;51.442;6.996;2023-07-29T13:13:45;4.00;;;1.77;;
4569;SDS011;2297;51.442;6.996;2023-07-29T13:16:13;2.70;;;1.65;;
4569;SDS011;2297;51.442;6.996;2023-07-29T13:18:40;5.03;;;1.80;;
4569;SDS011;2297;51.442;6.996;2023-07-29T13:21:06;2.90;;;1.73;;
4569;SDS011;2297;51.442;6.996;2023-07-29T13:23:33;2.70;;;1.73;;
4569;SDS011;2297;51.442;6.996;2023-07-29T13:26:00;1.85;;;1.50;;
4569;SDS011;2297;51.442;6.996;2023-07-29T13:28:26;12.02;;;2.00;;
4569;SDS011;2297;51.442;6.996;2023-07-29T13:30:53;1.88;;;1.67;;
4569;SDS011;2297;51.442;6.996;2023-07-29T13:33:21;3.28;;;1.75;;
4569;SDS011;2297;51.442;6.996;2023-07-29T13:35:48;1.95;;;1.58;;
4569;SDS011;2297;51.442;6.996;2023-07-29T13:38:15;4.68;;;1.70;;
4569;SDS011;2297;51.442;6.996;2023-07-29T13:40:42;2.63;;;1.40;;
4569;SDS011;2297;51.442;6.996;2023-07-29T13:43:09;2.78;;;1.55;;
4569;SDS011;2297;51.442;6.996;2023-07-29T13:45:35;1.95;;;1.60;;
4569;SDS011;2297;51.442;6.996;2023-07-29T13:48:02;1.90;;;1.70;;
4569;SDS011;2297;51.442;6.996;2023-07-29T13:50:30;3.60;;;1.70;;
4569;SDS011;2297;51.442;6.996;2023-07-29T13:52:57;2.28;;;1.83;;
4569;SDS011;2297;51.442;6.996;2023-07-29T13:55:24;3.75;;;1.70;;
4569;SDS011;2297;51.442;6.996;2023-07-29T13:57:51;3.67;;;1.77;;
4569;SDS011;2297;51.442;6.996;2023-07-29T14:00:18;2.60;;;1.83;;
4569;SDS011;2297;51.442;6.996;2023-07-29T14:02:45;1.95;;;1.77;;
4569;SDS011;2297;51.442;6.996;2023-07-29T14:05:12;4.03;;;2.10;;
4569;SDS011;2297;51.442;6.996;2023-07-29T14:10:45;2.97;;;1.90;;
4569;SDS011;2297;51.442;6.996;2023-07-29T14:13:12;4.57;;;2.38;;
4569;SDS011;2297;51.442;6.996;2023-07-29T14:15:38;3.25;;;2.10;;
4569;SDS011;2297;51.442;6.996;2023-07-29T14:18:05;7.18;;;2.72;;
4569;SDS011;2297;51.442;6.996;2023-07-29T14:20:32;5.10;;;2.50;;
4569;SDS011;2297;51.442;6.996;2023-07-29T14:22:58;5.82;;;4.28;;
4569;SDS011;2297;51.442;6.996;2023-07-29T14:25:25;7.10;;;2.50;;
4569;SDS011;2297;51.442;6.996;2023-07-29T14:27:53;5.55;;;2.10;;
4569;SDS011;2297;51.442;6.996;2023-07-29T14:30:20;2.33;;;1.90;;
4569;SDS011;2297;51.442;6.996;2023-07-29T14:32:46;3.55;;;2.45;;
4569;SDS011;2297;51.442;6.996;2023-07-29T14:35:13;2.13;;;1.60;;
4569;SDS011;2297;51.442;6.996;2023-07-29T14:37:39;4.13;;;1.80;;
4569;SDS011;2297;51.442;6.996;2023-07-29T14:40:06;2.58;;;1.77;;
4569;SDS011;2297;51.442;6.996;2023-07-29T14:42:33;2.50;;;2.00;;
4569;SDS011;2297;51.442;6.996;2023-07-29T14:45:01;2.80;;;2.22;;
4569;SDS011;2297;51.442;6.996;2023-07-29T14:47:28;3.72;;;2.88;;
4569;SDS011;2297;51.442;6.996;2023-07-29T14:49:59;4.18;;;2.50;;
4569;SDS011;2297;51.442;6.996;2023-07-29T14:52:26;3.63;;;2.40;;
4569;SDS011;2297;51.442;6.996;2023-07-29T14:54:52;3.30;;;2.90;;
4569;SDS011;2297;51.442;6.996;2023-07-29T14:57:19;6.07;;;4.50;;
4569;SDS011;2297;51.442;6.996;2023-07-29T14:59:46;4.07;;;3.50;;
4569;SDS011;2297;51.442;6.996;2023-07-29T15:02:14;6.63;;;3.10;;
4569;SDS011;2297;51.442;6.996;2023-07-29T15:04:41;5.30;;;3.50;;
4569;SDS011;2297;51.442;6.996;2023-07-29T15:07:08;6.28;;;3.42;;
4569;SDS011;2297;51.442;6.996;2023-07-29T15:09:34;4.80;;;3.30;;
4569;SDS011;2297;51.442;6.996;2023-07-29T15:12:01;7.80;;;3.30;;
4569;SDS011;2297;51.442;6.996;2023-07-29T15:14:28;4.07;;;3.13;;
4569;SDS011;2297;51.442;6.996;2023-07-29T15:16:55;5.20;;;2.92;;
4569;SDS011;2297;51.442;6.996;2023-07-29T15:19:23;3.40;;;2.60;;
4569;SDS011;2297;51.442;6.996;2023-07-29T15:21:50;5.63;;;3.00;;
4569;SDS011;2297;51.442;6.996;2023-07-29T15:24:16;4.32;;;2.58;;
4569;SDS011;2297;51.442;6.996;2023-07-29T15:26:43;4.68;;;2.60;;
4569;SDS011;2297;51.442;6.996;2023-07-29T15:29:10;3.47;;;2.45;;
4569;SDS011;2297;51.442;6.996;2023-07-29T15:31:37;4.82;;;2.63;;
4569;SDS011;2297;51.442;6.996;2023-07-29T15:34:06;3.15;;;2.05;;
4569;SDS011;2297;51.442;6.996;2023-07-29T15:36:34;4.53;;;2.55;;
4569;SDS011;2297;51.442;6.996;2023-07-29T15:39:01;2.72;;;2.00;;